createdAt,value
2022-09-20T00:00:01.809Z,1097.8621
2022-09-20T00:00:13.018Z,1089.7960
2022-09-20T00:00:24.210Z,1091.5780
2022-09-20T00:00:35.334Z,1097.8621
2022-09-20T00:00:46.541Z,1094.2620
2022-09-20T00:00:57.829Z,1096.9600
2022-09-20T00:01:09.126Z,1094.2620
2022-09-20T00:01:20.395Z,1099.6710
2022-09-20T00:01:31.633Z,1087.1340
2022-09-20T00:01:43.029Z,1099.6710
2022-09-20T00:01:54.163Z,1088.9070
2022-09-20T00:02:05.335Z,1094.2620
2022-09-20T00:02:16.454Z,1100.5770
2022-09-20T00:02:27.597Z,1093.3660
2022-09-20T00:02:38.719Z,1103.3060
2022-09-20T00:02:49.853Z,1097.8621
2022-09-20T00:03:01.267Z,1093.3660
2022-09-20T00:03:12.394Z,1092.4709
2022-09-20T00:03:23.520Z,1101.4850
2022-09-20T00:03:34.651Z,1096.0590
2022-09-20T00:03:45.956Z,1099.6710
2022-09-20T00:03:57.081Z,1097.8621
2022-09-20T00:04:08.459Z,1095.1600
2022-09-20T00:04:19.806Z,1094.2620
2022-09-20T00:04:30.938Z,1099.6710
2022-09-20T00:04:42.186Z,1097.8621
2022-09-20T00:04:53.403Z,1101.4850
2022-09-20T00:05:04.612Z,1099.6710
2022-09-20T00:05:15.787Z,1105.1320
2022-09-20T00:05:26.997Z,1106.0480
2022-09-20T00:05:38.128Z,1106.0480
2022-09-20T00:05:49.481Z,1101.4850
2022-09-20T00:06:00.626Z,1102.3950
2022-09-20T00:06:11.767Z,1096.9600
2022-09-20T00:06:22.928Z,1102.3950
2022-09-20T00:06:34.054Z,1097.8621
2022-09-20T00:06:45.176Z,1105.1320
2022-09-20T00:06:56.326Z,1101.4850
2022-09-20T00:07:07.444Z,1109.7260
2022-09-20T00:07:18.608Z,1109.7260
2022-09-20T00:07:29.736Z,1103.3060
2022-09-20T00:07:40.873Z,1106.0480
2022-09-20T00:07:52.143Z,1103.3060
2022-09-20T00:08:03.282Z,1110.6490
2022-09-20T00:08:14.417Z,1103.3060
2022-09-20T00:08:25.575Z,1100.5770
2022-09-20T00:08:36.708Z,1111.5740
2022-09-20T00:08:47.891Z,1110.6490
2022-09-20T00:08:59.091Z,1106.9650
2022-09-20T00:09:10.213Z,1112.5000
2022-09-20T00:09:21.453Z,1104.2180
2022-09-20T00:09:32.584Z,1106.9650
2022-09-20T00:09:43.723Z,1105.1320
2022-09-20T00:09:55.006Z,1118.0900
2022-09-20T00:10:06.145Z,1112.5000
2022-09-20T00:10:17.276Z,1108.8040
2022-09-20T00:10:28.414Z,1108.8040
2022-09-20T00:10:39.569Z,1116.2209
2022-09-20T00:10:50.758Z,1116.2209
2022-09-20T00:11:01.888Z,1108.8040
2022-09-20T00:11:13.021Z,1118.0900
2022-09-20T00:11:24.143Z,1120.9070
2022-09-20T00:11:35.283Z,1117.1550
2022-09-20T00:11:46.453Z,1119.0280
2022-09-20T00:11:57.801Z,1117.1550
2022-09-20T00:12:08.948Z,1112.5000
2022-09-20T00:12:20.078Z,1119.9659
2022-09-20T00:12:31.250Z,1117.1550
2022-09-20T00:12:42.385Z,1118.0900
2022-09-20T00:12:53.514Z,1122.7920
2022-09-20T00:13:04.645Z,1120.9070
2022-09-20T00:13:15.775Z,1122.7920
2022-09-20T00:13:26.927Z,1123.7371
2022-09-20T00:13:38.053Z,1125.6320
2022-09-20T00:13:49.180Z,1121.8490
2022-09-20T00:14:00.448Z,1114.3571
2022-09-20T00:14:11.575Z,1123.7371
2022-09-20T00:14:22.744Z,1123.7371
2022-09-20T00:14:33.875Z,1124.6840
2022-09-20T00:14:44.997Z,1127.5341
2022-09-20T00:14:56.118Z,1127.5341
2022-09-20T00:15:07.269Z,1123.7371
2022-09-20T00:15:18.380Z,1127.5341
2022-09-20T00:15:29.512Z,1119.0280
2022-09-20T00:15:40.684Z,1117.1550
2022-09-20T00:15:51.820Z,1114.3571
2022-09-20T00:16:03.090Z,1122.7920
2022-09-20T00:16:14.328Z,1120.9070
2022-09-20T00:16:25.564Z,1124.6840
2022-09-20T00:16:36.781Z,1116.2209
2022-09-20T00:16:47.979Z,1127.5341
2022-09-20T00:16:59.141Z,1114.3571
2022-09-20T00:17:10.305Z,1128.4871
2022-09-20T00:17:21.497Z,1120.9070
2022-09-20T00:17:32.687Z,1122.7920
2022-09-20T00:17:43.823Z,1130.3979
2022-09-20T00:17:54.959Z,1121.8490
2022-09-20T00:18:06.374Z,1119.0280
2022-09-20T00:18:17.506Z,1119.0280
2022-09-20T00:18:28.697Z,1129.4420
2022-09-20T00:18:39.888Z,1127.5341
2022-09-20T00:18:51.025Z,1129.4420
2022-09-20T00:19:02.156Z,1126.5820
2022-09-20T00:19:13.280Z,1122.7920
2022-09-20T00:19:24.440Z,1131.3560
2022-09-20T00:19:35.567Z,1124.6840
2022-09-20T00:19:46.689Z,1121.8490
2022-09-20T00:19:57.827Z,1120.9070
2022-09-20T00:20:09.104Z,1132.3160
2022-09-20T00:20:20.238Z,1132.3160
2022-09-20T00:20:31.368Z,1121.8490
2022-09-20T00:20:42.502Z,1125.6320
2022-09-20T00:20:53.665Z,1127.5341
2022-09-20T00:21:04.859Z,1116.2209
2022-09-20T00:21:16.051Z,1123.7371
2022-09-20T00:21:27.223Z,1121.8490
2022-09-20T00:21:38.364Z,1122.7920
2022-09-20T00:21:49.504Z,1125.6320
2022-09-20T00:22:00.652Z,1122.7920
2022-09-20T00:22:11.909Z,1121.8490
2022-09-20T00:22:23.045Z,1125.6320
2022-09-20T00:22:34.183Z,1127.5341
2022-09-20T00:22:45.315Z,1131.3560
2022-09-20T00:22:56.439Z,1137.1379
2022-09-20T00:23:07.579Z,1122.7920
2022-09-20T00:23:18.686Z,1127.5341
2022-09-20T00:23:29.821Z,1133.2770
2022-09-20T00:23:41.016Z,1125.6320
2022-09-20T00:23:52.215Z,1134.2400
2022-09-20T00:24:03.342Z,1129.4420
2022-09-20T00:24:14.667Z,1127.5341
2022-09-20T00:24:25.834Z,1125.6320
2022-09-20T00:24:37.003Z,1128.4871
2022-09-20T00:24:49.120Z,1141.0260
2022-09-20T00:25:00.407Z,1133.2770
2022-09-20T00:25:11.566Z,1128.4871
2022-09-20T00:25:22.704Z,1129.4420
2022-09-20T00:25:33.843Z,1131.3560
2022-09-20T00:25:44.970Z,1124.6840
2022-09-20T00:25:56.103Z,1125.6320
2022-09-20T00:26:07.233Z,1132.3160
2022-09-20T00:26:18.495Z,1129.4420
2022-09-20T00:26:29.663Z,1138.1071
2022-09-20T00:26:40.846Z,1129.4420
2022-09-20T00:26:51.983Z,1135.2040
2022-09-20T00:27:03.117Z,1135.2040
2022-09-20T00:27:14.252Z,1139.0790
2022-09-20T00:27:25.384Z,1142.0020
2022-09-20T00:27:36.511Z,1125.6320
2022-09-20T00:27:47.645Z,1138.1071
2022-09-20T00:27:58.793Z,1133.2770
2022-09-20T00:28:09.929Z,1132.3160
2022-09-20T00:28:21.208Z,1140.0510
2022-09-20T00:28:32.343Z,1132.3160
2022-09-20T00:28:43.473Z,1127.5341
2022-09-20T00:28:54.628Z,1127.5341
2022-09-20T00:29:05.809Z,1141.0260
2022-09-20T00:29:17.010Z,1137.1379
2022-09-20T00:29:28.236Z,1140.0510
2022-09-20T00:29:39.406Z,1139.0790
2022-09-20T00:29:50.540Z,1141.0260
2022-09-20T00:30:01.681Z,1137.1379
2022-09-20T00:30:12.825Z,1141.0260
2022-09-20T00:30:24.102Z,1132.3160
2022-09-20T00:30:35.243Z,1133.2770
2022-09-20T00:30:46.380Z,1133.2770
2022-09-20T00:30:57.551Z,1135.2040
2022-09-20T00:31:08.708Z,1131.3560
2022-09-20T00:31:19.854Z,1129.4420
2022-09-20T00:31:31.019Z,1134.2400
2022-09-20T00:31:42.159Z,1133.2770
2022-09-20T00:31:53.358Z,1134.2400
2022-09-20T00:32:04.590Z,1133.2770
2022-09-20T00:32:15.803Z,1136.1700
2022-09-20T00:32:27.169Z,1127.5341
2022-09-20T00:32:38.301Z,1137.1379
2022-09-20T00:32:49.479Z,1137.1379
2022-09-20T00:33:00.608Z,1137.1379
2022-09-20T00:33:11.731Z,1134.2400
2022-09-20T00:33:22.866Z,1142.9790
2022-09-20T00:33:34.009Z,1134.2400
2022-09-20T00:33:45.174Z,1136.1700
2022-09-20T00:33:56.391Z,1133.2770
2022-09-20T00:34:07.582Z,1132.3160
2022-09-20T00:34:18.674Z,1132.3160
2022-09-20T00:34:29.961Z,1136.1700
2022-09-20T00:34:41.090Z,1135.2040
2022-09-20T00:34:52.218Z,1132.3160
2022-09-20T00:35:03.353Z,1137.1379
2022-09-20T00:35:14.481Z,1144.9399
2022-09-20T00:35:25.653Z,1142.0020
2022-09-20T00:35:36.781Z,1131.3560
2022-09-20T00:35:47.912Z,1143.9590
2022-09-20T00:35:59.040Z,1141.0260
2022-09-20T00:36:10.164Z,1135.2040
2022-09-20T00:36:21.326Z,1131.3560
2022-09-20T00:36:32.671Z,1132.3160
2022-09-20T00:36:43.875Z,1134.2400
2022-09-20T00:36:55.008Z,1129.4420
2022-09-20T00:37:06.161Z,1141.0260
2022-09-20T00:37:17.329Z,1124.6840
2022-09-20T00:37:28.450Z,1137.1379
2022-09-20T00:37:39.581Z,1136.1700
2022-09-20T00:37:50.706Z,1132.3160
2022-09-20T00:38:01.842Z,1131.3560
2022-09-20T00:38:12.998Z,1137.1379
2022-09-20T00:38:24.130Z,1143.9590
2022-09-20T00:38:35.406Z,1144.9399
2022-09-20T00:38:46.544Z,1137.1379
2022-09-20T00:38:57.679Z,1135.2040
2022-09-20T00:39:08.812Z,1135.2040
2022-09-20T00:39:19.948Z,1132.3160
2022-09-20T00:39:31.104Z,1140.0510
2022-09-20T00:39:42.293Z,1138.1071
2022-09-20T00:39:53.508Z,1137.1379
2022-09-20T00:40:04.720Z,1136.1700
2022-09-20T00:40:16.002Z,1138.1071
2022-09-20T00:40:27.315Z,1143.9590
2022-09-20T00:40:38.703Z,1137.1379
2022-09-20T00:40:49.821Z,1133.2770
2022-09-20T00:41:01.009Z,1141.0260
2022-09-20T00:41:12.216Z,1142.0020
2022-09-20T00:41:23.414Z,1137.1379
2022-09-20T00:41:34.612Z,1144.9399
2022-09-20T00:41:45.811Z,1138.1071
2022-09-20T00:41:56.936Z,1141.0260
2022-09-20T00:42:08.070Z,1135.2040
2022-09-20T00:42:19.206Z,1129.4420
2022-09-20T00:42:30.328Z,1142.9790
2022-09-20T00:42:41.645Z,1137.1379
2022-09-20T00:42:52.779Z,1132.3160
2022-09-20T00:43:03.915Z,1136.1700
2022-09-20T00:43:15.085Z,1134.2400
2022-09-20T00:43:26.221Z,1141.0260
2022-09-20T00:43:37.365Z,1137.1379
2022-09-20T00:43:48.503Z,1135.2040
2022-09-20T00:43:59.646Z,1139.0790
2022-09-20T00:44:10.767Z,1135.2040
2022-09-20T00:44:21.904Z,1136.1700
2022-09-20T00:44:33.069Z,1134.2400
2022-09-20T00:44:44.332Z,1142.9790
2022-09-20T00:44:55.478Z,1127.5341
2022-09-20T00:45:06.609Z,1141.0260
2022-09-20T00:45:17.736Z,1134.2400
2022-09-20T00:45:28.930Z,1135.2040
2022-09-20T00:45:40.100Z,1141.0260
2022-09-20T00:45:51.309Z,1133.2770
2022-09-20T00:46:02.611Z,1146.9070
2022-09-20T00:46:13.867Z,1134.2400
2022-09-20T00:46:25.145Z,1135.2040
2022-09-20T00:46:36.288Z,1140.0510
2022-09-20T00:46:47.564Z,1137.1379
2022-09-20T00:46:58.681Z,1140.0510
2022-09-20T00:47:09.809Z,1139.0790
2022-09-20T00:47:20.932Z,1149.8710
2022-09-20T00:47:32.061Z,1144.9399
2022-09-20T00:47:43.250Z,1137.1379
2022-09-20T00:47:54.379Z,1135.2040
2022-09-20T00:48:05.514Z,1133.2770
2022-09-20T00:48:16.644Z,1139.0790
2022-09-20T00:48:27.760Z,1139.0790
2022-09-20T00:48:38.929Z,1134.2400
2022-09-20T00:48:50.199Z,1141.0260
2022-09-20T00:49:01.340Z,1139.0790
2022-09-20T00:49:12.533Z,1142.0020
2022-09-20T00:49:23.731Z,1142.9790
2022-09-20T00:49:34.898Z,1142.0020
2022-09-20T00:49:46.019Z,1139.0790
2022-09-20T00:49:57.149Z,1141.0260
2022-09-20T00:50:08.288Z,1138.1071
2022-09-20T00:50:19.412Z,1141.0260
2022-09-20T00:50:30.534Z,1144.9399
2022-09-20T00:50:41.673Z,1147.8929
2022-09-20T00:50:52.949Z,1139.0790
2022-09-20T00:51:04.079Z,1138.1071
2022-09-20T00:51:15.221Z,1148.8810
2022-09-20T00:51:26.384Z,1149.8710
2022-09-20T00:51:37.492Z,1148.8810
2022-09-20T00:51:48.691Z,1145.9230
2022-09-20T00:51:59.889Z,1152.8500
2022-09-20T00:52:11.032Z,1142.0020
2022-09-20T00:52:22.135Z,1144.9399
2022-09-20T00:52:33.272Z,1140.0510
2022-09-20T00:52:44.403Z,1142.0020
2022-09-20T00:52:55.723Z,1147.8929
2022-09-20T00:53:06.858Z,1144.9399
2022-09-20T00:53:17.988Z,1154.8440
2022-09-20T00:53:29.169Z,1147.8929
2022-09-20T00:53:40.366Z,1146.9070
2022-09-20T00:53:51.573Z,1144.9399
2022-09-20T00:54:02.700Z,1142.9790
2022-09-20T00:54:16.998Z,1151.8550
2022-09-20T00:54:30.933Z,1139.0790
2022-09-20T00:54:42.086Z,1136.1700
2022-09-20T00:54:53.234Z,1132.3160
2022-09-20T00:55:04.512Z,1137.1379
2022-09-20T00:55:15.644Z,1146.9070
2022-09-20T00:55:26.767Z,1147.8929
2022-09-20T00:55:37.904Z,1142.0020
2022-09-20T00:55:49.047Z,1142.0020
2022-09-20T00:56:00.211Z,1147.8929
2022-09-20T00:56:11.335Z,1148.8810
2022-09-20T00:56:22.461Z,1142.0020
2022-09-20T00:56:33.592Z,1141.0260
2022-09-20T00:56:44.726Z,1148.8810
2022-09-20T00:56:55.891Z,1154.8440
2022-09-20T00:57:07.229Z,1151.8550
2022-09-20T00:57:18.365Z,1149.8710
2022-09-20T00:57:29.495Z,1152.8500
2022-09-20T00:57:40.625Z,1144.9399
2022-09-20T00:57:51.764Z,1142.0020
2022-09-20T00:58:02.893Z,1144.9399
2022-09-20T00:58:14.041Z,1152.8500
2022-09-20T00:58:25.171Z,1146.9070
2022-09-20T00:58:36.297Z,1146.9070
2022-09-20T00:58:47.429Z,1152.8500
2022-09-20T00:58:58.564Z,1152.8500
2022-09-20T00:59:09.833Z,1148.8810
2022-09-20T00:59:20.971Z,1154.8440
2022-09-20T00:59:32.102Z,1154.8440
2022-09-20T00:59:43.283Z,1156.8459
2022-09-20T00:59:54.452Z,1156.8459
2022-09-20T01:00:05.649Z,1162.8920
2022-09-20T01:00:16.852Z,1158.8540
2022-09-20T01:00:27.987Z,1158.8540
2022-09-20T01:00:39.125Z,1154.8440
2022-09-20T01:00:50.366Z,1152.8500
2022-09-20T01:01:01.537Z,1150.8621
2022-09-20T01:01:12.942Z,1148.8810
2022-09-20T01:01:24.140Z,1150.8621
2022-09-20T01:01:35.301Z,1144.9399
2022-09-20T01:01:46.472Z,1142.0020
2022-09-20T01:01:57.701Z,1146.9070
2022-09-20T01:02:08.940Z,1152.8500
2022-09-20T01:02:20.087Z,1147.8929
2022-09-20T01:02:31.344Z,1149.8710
2022-09-20T01:02:42.539Z,1142.9790
2022-09-20T01:02:53.668Z,1146.9070
2022-09-20T01:03:04.845Z,1145.9230
2022-09-20T01:03:16.104Z,1147.8929
2022-09-20T01:03:27.225Z,1142.9790
2022-09-20T01:03:38.362Z,1150.8621
2022-09-20T01:03:49.494Z,1146.9070
2022-09-20T01:04:00.633Z,1145.9230
2022-09-20T01:04:11.773Z,1146.9070
2022-09-20T01:04:22.935Z,1154.8440
2022-09-20T01:04:34.054Z,1155.8440
2022-09-20T01:04:45.215Z,1152.8500
2022-09-20T01:04:56.339Z,1146.9070
2022-09-20T01:05:07.465Z,1156.8459
2022-09-20T01:05:18.736Z,1148.8810
2022-09-20T01:05:29.865Z,1145.9230
2022-09-20T01:05:41.020Z,1147.8929
2022-09-20T01:05:52.211Z,1146.9070
2022-09-20T01:06:03.410Z,1149.8710
2022-09-20T01:06:14.542Z,1146.9070
2022-09-20T01:06:25.682Z,1146.9070
2022-09-20T01:06:36.813Z,1150.8621
2022-09-20T01:06:47.937Z,1152.8500
2022-09-20T01:06:59.084Z,1152.8500
2022-09-20T01:07:10.212Z,1155.8440
2022-09-20T01:07:21.508Z,1149.8710
2022-09-20T01:07:32.603Z,1149.8710
2022-09-20T01:07:43.730Z,1162.8920
2022-09-20T01:07:54.863Z,1142.9790
2022-09-20T01:08:05.983Z,1152.8500
2022-09-20T01:08:17.172Z,1156.8459
2022-09-20T01:08:28.299Z,1159.8610
2022-09-20T01:08:39.419Z,1151.8550
2022-09-20T01:08:50.551Z,1151.8550
2022-09-20T01:09:01.693Z,1156.8459
2022-09-20T01:09:12.862Z,1157.8490
2022-09-20T01:09:24.184Z,1151.8550
2022-09-20T01:09:35.319Z,1151.8550
2022-09-20T01:09:46.468Z,1155.8440
2022-09-20T01:09:57.649Z,1147.8929
2022-09-20T01:10:08.773Z,1156.8459
2022-09-20T01:10:19.904Z,1159.8610
2022-09-20T01:10:31.035Z,1169.0020
2022-09-20T01:10:42.174Z,1162.8920
2022-09-20T01:10:53.338Z,1155.8440
2022-09-20T01:11:04.462Z,1169.0020
2022-09-20T01:11:15.590Z,1151.8550
2022-09-20T01:11:26.869Z,1159.8610
2022-09-20T01:11:38.013Z,1155.8440
2022-09-20T01:11:49.139Z,1159.8610
2022-09-20T01:12:00.280Z,1163.9060
2022-09-20T01:12:11.401Z,1160.8700
2022-09-20T01:12:22.542Z,1157.8490
2022-09-20T01:12:33.676Z,1162.8920
2022-09-20T01:12:44.800Z,1156.8459
2022-09-20T01:12:55.933Z,1160.8700
2022-09-20T01:13:07.090Z,1156.8459
2022-09-20T01:13:18.216Z,1154.8440
2022-09-20T01:13:29.501Z,1160.8700
2022-09-20T01:13:40.680Z,1160.8700
2022-09-20T01:13:51.877Z,1156.8459
2022-09-20T01:14:02.982Z,1164.9210
2022-09-20T01:14:14.110Z,1158.8540
2022-09-20T01:14:25.244Z,1158.8540
2022-09-20T01:14:36.370Z,1157.8490
2022-09-20T01:14:47.531Z,1160.8700
2022-09-20T01:14:58.663Z,1161.8800
2022-09-20T01:15:09.793Z,1166.9580
2022-09-20T01:15:20.930Z,1163.9060
2022-09-20T01:15:32.214Z,1162.8920
2022-09-20T01:15:43.354Z,1162.8920
2022-09-20T01:15:54.482Z,1162.8920
2022-09-20T01:16:05.685Z,1172.0811
2022-09-20T01:16:16.904Z,1163.9060
2022-09-20T01:16:28.105Z,1173.1110
2022-09-20T01:16:39.381Z,1153.8459
2022-09-20T01:16:50.574Z,1157.8490
2022-09-20T01:17:01.750Z,1157.8490
2022-09-20T01:17:12.925Z,1162.8920
2022-09-20T01:17:24.052Z,1166.9580
2022-09-20T01:17:35.397Z,1160.8700
2022-09-20T01:17:46.537Z,1158.8540
2022-09-20T01:17:57.665Z,1153.8459
2022-09-20T01:18:08.719Z,1163.9060
2022-09-20T01:18:19.845Z,1159.8610
2022-09-20T01:18:30.977Z,1162.8920
2022-09-20T01:18:42.125Z,1160.8700
2022-09-20T01:18:53.266Z,1162.8920
2022-09-20T01:19:04.392Z,1158.8540
2022-09-20T01:19:15.510Z,1166.9580
2022-09-20T01:19:26.638Z,1162.8920
2022-09-20T01:19:37.807Z,1167.9790
2022-09-20T01:19:49.100Z,1159.8610
2022-09-20T01:20:00.235Z,1160.8700
2022-09-20T01:20:11.407Z,1158.8540
2022-09-20T01:20:22.540Z,1165.9390
2022-09-20T01:20:33.669Z,1164.9210
2022-09-20T01:20:44.810Z,1157.8490
2022-09-20T01:20:55.945Z,1164.9210
2022-09-20T01:21:07.084Z,1160.8700
2022-09-20T01:21:18.222Z,1160.8700
2022-09-20T01:21:29.341Z,1164.9210
2022-09-20T01:21:40.468Z,1158.8540
2022-09-20T01:21:51.747Z,1160.8700
2022-09-20T01:22:02.883Z,1162.8920
2022-09-20T01:22:14.025Z,1159.8610
2022-09-20T01:22:25.196Z,1158.8540
2022-09-20T01:22:36.294Z,1161.8800
2022-09-20T01:22:47.428Z,1162.8920
2022-09-20T01:22:58.550Z,1164.9210
2022-09-20T01:23:09.684Z,1164.9210
2022-09-20T01:23:20.854Z,1155.8440
2022-09-20T01:23:31.980Z,1159.8610
2022-09-20T01:23:43.112Z,1159.8610
2022-09-20T01:23:54.373Z,1170.0260
2022-09-20T01:24:05.493Z,1157.8490
2022-09-20T01:24:16.631Z,1158.8540
2022-09-20T01:24:27.760Z,1160.8700
2022-09-20T01:24:38.935Z,1157.8490
2022-09-20T01:24:50.166Z,1158.8540
2022-09-20T01:25:01.334Z,1162.8920
2022-09-20T01:25:12.524Z,1162.8920
2022-09-20T01:25:23.729Z,1159.8610
2022-09-20T01:25:34.859Z,1161.8800
2022-09-20T01:25:45.989Z,1159.8610
2022-09-20T01:25:57.275Z,1167.9790
2022-09-20T01:26:08.399Z,1157.8490
2022-09-20T01:26:19.533Z,1160.8700
2022-09-20T01:26:30.669Z,1173.1110
2022-09-20T01:26:41.802Z,1170.0260
2022-09-20T01:26:52.930Z,1159.8610
2022-09-20T01:27:04.046Z,1173.1110
2022-09-20T01:27:15.180Z,1173.1110
2022-09-20T01:27:26.308Z,1160.8700
2022-09-20T01:27:37.492Z,1162.8920
2022-09-20T01:27:48.622Z,1161.8800
2022-09-20T01:27:59.913Z,1161.8800
2022-09-20T01:28:11.088Z,1162.8920
2022-09-20T01:28:22.234Z,1165.9390
2022-09-20T01:28:33.358Z,1160.8700
2022-09-20T01:28:44.478Z,1159.8610
2022-09-20T01:28:55.700Z,1171.0530
2022-09-20T01:29:06.861Z,1164.9210
2022-09-20T01:29:17.981Z,1165.9390
2022-09-20T01:29:29.162Z,1162.8920
2022-09-20T01:29:40.299Z,1169.0020
2022-09-20T01:29:51.459Z,1164.9210
2022-09-20T01:30:02.730Z,1165.9390
2022-09-20T01:30:13.871Z,1172.0811
2022-09-20T01:30:25.011Z,1173.1110
2022-09-20T01:30:36.141Z,1166.9580
2022-09-20T01:30:47.282Z,1169.0020
2022-09-20T01:30:58.451Z,1169.0020
2022-09-20T01:31:09.584Z,1165.9390
2022-09-20T01:31:20.762Z,1164.9210
2022-09-20T01:31:31.910Z,1167.9790
2022-09-20T01:31:43.041Z,1167.9790
2022-09-20T01:31:54.272Z,1171.0530
2022-09-20T01:32:05.662Z,1170.0260
2022-09-20T01:32:16.763Z,1169.0020
2022-09-20T01:32:27.888Z,1170.0260
2022-09-20T01:32:39.022Z,1167.9790
2022-09-20T01:32:50.160Z,1170.0260
2022-09-20T01:33:01.326Z,1169.0020
2022-09-20T01:33:12.456Z,1166.9580
2022-09-20T01:33:23.582Z,1169.0020
2022-09-20T01:33:34.712Z,1171.0530
2022-09-20T01:33:45.849Z,1176.2111
2022-09-20T01:33:57.008Z,1171.0530
2022-09-20T01:34:08.294Z,1173.1110
2022-09-20T01:34:19.447Z,1166.9580
2022-09-20T01:34:30.616Z,1174.1420
2022-09-20T01:34:41.680Z,1167.9790
2022-09-20T01:34:52.848Z,1170.0260
2022-09-20T01:35:03.963Z,1180.3710
2022-09-20T01:35:15.090Z,1176.2111
2022-09-20T01:35:26.229Z,1178.2880
2022-09-20T01:35:37.363Z,1173.1110
2022-09-20T01:35:48.496Z,1171.0530
2022-09-20T01:35:59.627Z,1176.2111
2022-09-20T01:36:10.758Z,1169.0020
2022-09-20T01:36:22.043Z,1181.4160
2022-09-20T01:36:33.179Z,1172.0811
2022-09-20T01:36:44.368Z,1179.3290
2022-09-20T01:36:55.502Z,1179.3290
2022-09-20T01:37:06.631Z,1187.7220
2022-09-20T01:37:17.757Z,1179.3290
2022-09-20T01:37:28.901Z,1185.6130
2022-09-20T01:37:40.048Z,1183.5110
2022-09-20T01:37:51.177Z,1179.3290
2022-09-20T01:38:02.299Z,1176.2111
2022-09-20T01:38:13.431Z,1179.3290
2022-09-20T01:38:24.703Z,1183.5110
2022-09-20T01:38:35.822Z,1177.2490
2022-09-20T01:38:46.963Z,1179.3290
2022-09-20T01:38:58.134Z,1179.3290
2022-09-20T01:39:09.323Z,1175.1760
2022-09-20T01:39:20.449Z,1169.0020
2022-09-20T01:39:31.587Z,1177.2490
2022-09-20T01:39:42.721Z,1181.4160
2022-09-20T01:39:53.874Z,1177.2490
2022-09-20T01:40:05.056Z,1173.1110
2022-09-20T01:40:16.259Z,1172.0811
2022-09-20T01:40:27.541Z,1183.5110
2022-09-20T01:40:38.809Z,1176.2111
2022-09-20T01:40:49.985Z,1180.3710
2022-09-20T01:41:01.123Z,1175.1760
2022-09-20T01:41:12.264Z,1175.1760
2022-09-20T01:41:23.401Z,1176.2111
2022-09-20T01:41:34.536Z,1174.1420
2022-09-20T01:41:45.661Z,1179.3290
2022-09-20T01:41:56.799Z,1176.2111
2022-09-20T01:42:07.941Z,1178.2880
2022-09-20T01:42:19.070Z,1177.2490
2022-09-20T01:42:30.354Z,1176.2111
2022-09-20T01:42:41.493Z,1179.3290
2022-09-20T01:42:52.615Z,1181.4160
2022-09-20T01:43:03.764Z,1179.3290
2022-09-20T01:43:14.882Z,1177.2490
2022-09-20T01:43:26.007Z,1178.2880
2022-09-20T01:43:37.165Z,1173.1110
2022-09-20T01:43:48.293Z,1187.7220
2022-09-20T01:43:59.418Z,1183.5110
2022-09-20T01:44:10.539Z,1163.9060
2022-09-20T01:44:21.669Z,1175.1760
2022-09-20T01:44:32.994Z,1178.2880
2022-09-20T01:44:44.135Z,1170.0260
2022-09-20T01:44:55.295Z,1175.1760
2022-09-20T01:45:06.426Z,1173.1110
2022-09-20T01:45:17.558Z,1173.1110
2022-09-20T01:45:28.807Z,1175.1760
2022-09-20T01:45:39.981Z,1175.1760
2022-09-20T01:45:51.134Z,1175.1760
2022-09-20T01:46:02.316Z,1173.1110
2022-09-20T01:46:13.592Z,1171.0530
2022-09-20T01:46:24.805Z,1175.1760
2022-09-20T01:46:36.116Z,1177.2490
2022-09-20T01:46:47.251Z,1173.1110
2022-09-20T01:46:58.455Z,1169.0020
2022-09-20T01:47:09.650Z,1174.1420
2022-09-20T01:47:20.844Z,1175.1760
2022-09-20T01:47:31.981Z,1171.0530
2022-09-20T01:47:43.117Z,1171.0530
2022-09-20T01:47:54.251Z,1164.9210
2022-09-20T01:48:05.379Z,1177.2490
2022-09-20T01:48:16.538Z,1181.4160
2022-09-20T01:48:27.671Z,1171.0530
2022-09-20T01:48:38.931Z,1171.0530
2022-09-20T01:48:50.126Z,1171.0530
2022-09-20T01:49:01.241Z,1171.0530
2022-09-20T01:49:12.369Z,1171.0530
2022-09-20T01:49:23.503Z,1173.1110
2022-09-20T01:49:34.631Z,1174.1420
2022-09-20T01:49:45.806Z,1171.0530
2022-09-20T01:49:56.974Z,1171.0530
2022-09-20T01:50:08.108Z,1173.1110
2022-09-20T01:50:19.235Z,1179.3290
2022-09-20T01:50:30.365Z,1175.1760
2022-09-20T01:50:41.653Z,1184.5610
2022-09-20T01:50:52.792Z,1179.3290
2022-09-20T01:51:03.918Z,1179.3290
2022-09-20T01:51:15.088Z,1172.0811
2022-09-20T01:51:26.220Z,1178.2880
2022-09-20T01:51:37.333Z,1174.1420
2022-09-20T01:51:48.459Z,1175.1760
2022-09-20T01:51:59.584Z,1177.2490
2022-09-20T01:52:10.767Z,1177.2490
2022-09-20T01:52:21.899Z,1177.2490
2022-09-20T01:52:33.050Z,1175.1760
2022-09-20T01:52:44.299Z,1179.3290
2022-09-20T01:52:55.428Z,1178.2880
2022-09-20T01:53:06.552Z,1179.3290
2022-09-20T01:53:17.671Z,1177.2490
2022-09-20T01:53:28.865Z,1177.2490
2022-09-20T01:53:40.050Z,1177.2490
2022-09-20T01:53:51.183Z,1180.3710
2022-09-20T01:54:02.309Z,1181.4160
2022-09-20T01:54:13.444Z,1178.2880
2022-09-20T01:54:24.572Z,1175.1760
2022-09-20T01:54:35.733Z,1178.2880
2022-09-20T01:54:47.077Z,1182.4620
2022-09-20T01:54:58.227Z,1172.0811
2022-09-20T01:55:09.362Z,1179.3290
2022-09-20T01:55:20.524Z,1177.2490
2022-09-20T01:55:31.655Z,1177.2490
2022-09-20T01:55:42.788Z,1179.3290
2022-09-20T01:55:53.920Z,1179.3290
2022-09-20T01:56:05.081Z,1182.4620
2022-09-20T01:56:16.211Z,1179.3290
2022-09-20T01:56:27.340Z,1175.1760
2022-09-20T01:56:38.482Z,1182.4620
2022-09-20T01:56:49.753Z,1176.2111
2022-09-20T01:57:00.882Z,1177.2490
2022-09-20T01:57:12.024Z,1178.2880
2022-09-20T01:57:27.197Z,1178.2880
2022-09-20T01:57:38.899Z,1162.8920
2022-09-20T01:57:50.040Z,1177.2490
2022-09-20T01:58:01.183Z,1172.0811
2022-09-20T01:58:12.363Z,1172.0811
2022-09-20T01:58:23.491Z,1172.0811
2022-09-20T01:58:34.623Z,1177.2490
2022-09-20T01:58:46.979Z,1173.1110
2022-09-20T01:59:22.708Z,1162.8920
2022-09-20T01:59:24.322Z,1148.8810
2022-09-20T01:59:35.913Z,1128.4871
2022-09-20T01:59:47.088Z,1140.0510
2022-09-20T01:59:58.222Z,1145.9230
2022-09-20T02:00:09.371Z,1150.8621
2022-09-20T02:00:20.502Z,1151.8550
2022-09-20T02:00:31.641Z,1152.8500
2022-09-20T02:00:42.838Z,1150.8621
2022-09-20T02:00:54.031Z,1158.8540
2022-09-20T02:01:05.272Z,1152.8500
2022-09-20T02:01:16.613Z,1157.8490
2022-09-20T02:01:27.821Z,1157.8490
2022-09-20T02:01:39.183Z,1154.8440
2022-09-20T02:01:50.290Z,1154.8440
2022-09-20T02:02:01.554Z,1158.8540
2022-09-20T02:02:12.783Z,1153.8459
2022-09-20T02:02:24.006Z,1162.8920
2022-09-20T02:02:35.272Z,1156.8459
2022-09-20T02:02:46.451Z,1156.8459
2022-09-20T02:02:57.591Z,1157.8490
2022-09-20T02:03:08.715Z,1161.8800
2022-09-20T02:03:20.038Z,1158.8540
2022-09-20T02:03:31.174Z,1156.8459
2022-09-20T02:03:42.301Z,1161.8800
2022-09-20T02:03:53.484Z,1156.8459
2022-09-20T02:04:04.613Z,1159.8610
2022-09-20T02:04:15.748Z,1163.9060
2022-09-20T02:04:26.884Z,1162.8920
2022-09-20T02:04:38.010Z,1158.8540
2022-09-20T02:04:49.172Z,1169.0020
2022-09-20T02:05:00.303Z,1163.9060
2022-09-20T02:05:11.469Z,1162.8920
2022-09-20T02:05:22.743Z,1165.9390
2022-09-20T02:05:33.886Z,1160.8700
2022-09-20T02:05:45.021Z,1161.8800
2022-09-20T02:05:56.144Z,1161.8800
2022-09-20T02:06:07.264Z,1158.8540
2022-09-20T02:06:18.445Z,1167.9790
2022-09-20T02:06:29.571Z,1158.8540
2022-09-20T02:06:40.695Z,1164.9210
2022-09-20T02:06:51.833Z,1171.0530
2022-09-20T02:07:02.961Z,1157.8490
2022-09-20T02:07:14.129Z,1165.9390
2022-09-20T02:07:25.397Z,1156.8459
2022-09-20T02:07:36.553Z,1166.9580
2022-09-20T02:07:47.653Z,1163.9060